Aérodrome :
LOGIN :

S'inscrire | Disclaimer

   EN    FR    IT 

 










Légende :    VFR   VFR Marginal   IFR   IFR Intensif   IFR Très Intensif
Visi : 
Plafond : 
>= 8 km
>= 3000ft
5 à 8 km
1000 à 3000 ft
1500m à 5 km
500 à 1000 ft
800 à 1500m
200 à 500 ft
< 800m
< 200 ft
Symboles :   Orages  Brouillard  Fortes neiges  Fortes précipitations  Vent > 20 kt
SIGMETs :   Divers  Orages  Givrage  Turbulence  Onde Orograph.  Cendres Volcan.






- Altitude de l'aérodrome : 1768 ft


LEHC - Huesca Pirineos

DERNIER METAR :
  • 190830Z 08005KT 040V120 9999 SCT035 22/14 Q1016

METARs EXPIRÉS :
  • 190800Z 09006KT 040V160 9999 FEW035 21/14 Q1016
  • 190730Z 08008KT 050V110 9999 FEW035 SCT050 19/14 Q1016
  • 190700Z 09007KT 060V120 9999 SCT070 19/14 Q1017
  • 190630Z AUTO 11007KT 080V140 CAVOK 18/15 Q1017
  • 190600Z AUTO 11006KT 080V140 CAVOK 18/15 Q1016

TAF TAF LEHC
Valide du 19 à 09h jusqu'au 20 à 09h UTC


190800Z 1909/2009 09010KT 9999 FEW045 TX26/1912Z TN15/2006Z
BECMG 1910/1912 01008KT
PROB30
TEMPO 1909/1912 4000 TSRA FEW045CB
PROB40
TEMPO 1912/1924 VRB15G25KT 2000 TSRA FEW045CB



MET'MAP, la Météo Aéronautique d'un coup d'oeil ! - Copyright ORBIFLY Décembre 2007 - Disclaimer

ORBIFLY MET'MAP TEAM :

Programmation & Développement : Alexandra Zaïnal
Sur une idée originale de : Baudouin d'Aumeries
Assistance à la programmation : Marc-Olivier Méhu
Soutien technique & logistique : Manuel Goepfert

Contact : metmap@orbifly.com




SOURCES & CREDITS :

   NOAA